sensor_id;sensor_type;location;lat;lon;timestamp;P1;durP1;ratioP1;P2;durP2;ratioP2
77298;SDS011;66361;52.034;20.656;2023-05-27T17:14:44;5.00;;;3.25;;
77298;SDS011;66361;52.034;20.656;2023-05-27T17:18:47;2.70;;;1.80;;
77298;SDS011;66361;52.034;20.656;2023-05-27T17:22:50;6.03;;;2.33;;
77298;SDS011;66361;52.034;20.656;2023-05-27T17:26:53;4.93;;;2.10;;
77298;SDS011;66361;52.034;20.656;2023-05-27T17:30:58;3.75;;;1.63;;
77298;SDS011;66361;52.034;20.656;2023-05-27T17:35:01;3.42;;;1.80;;
77298;SDS011;66361;52.034;20.656;2023-05-27T17:39:08;4.88;;;1.92;;
77298;SDS011;66361;52.034;20.656;2023-05-27T17:43:11;2.70;;;1.73;;
77298;SDS011;66361;52.034;20.656;2023-05-27T17:47:16;3.60;;;1.65;;
77298;SDS011;66361;52.034;20.656;2023-05-27T17:51:20;2.72;;;1.50;;
77298;SDS011;66361;52.034;20.656;2023-05-27T17:55:26;2.78;;;1.52;;
77298;SDS011;66361;52.034;20.656;2023-05-27T17:59:29;4.25;;;1.60;;
77298;SDS011;66361;52.034;20.656;2023-05-27T18:03:34;4.03;;;1.80;;
77298;SDS011;66361;52.034;20.656;2023-05-27T18:07:37;6.32;;;2.13;;
77298;SDS011;66361;52.034;20.656;2023-05-27T18:11:41;3.35;;;1.90;;
77298;SDS011;66361;52.034;20.656;2023-05-27T18:15:44;3.50;;;1.90;;
77298;SDS011;66361;52.034;20.656;2023-05-27T18:19:49;3.40;;;2.15;;
77298;SDS011;66361;52.034;20.656;2023-05-27T18:23:53;3.90;;;1.95;;
77298;SDS011;66361;52.034;20.656;2023-05-27T18:27:58;5.35;;;2.38;;
77298;SDS011;66361;52.034;20.656;2023-05-27T18:32:02;2.83;;;2.20;;
77298;SDS011;66361;52.034;20.656;2023-05-27T18:36:07;3.78;;;2.10;;
77298;SDS011;66361;52.034;20.656;2023-05-27T18:40:11;3.67;;;2.47;;
77298;SDS011;66361;52.034;20.656;2023-05-27T18:44:15;4.93;;;2.50;;
77298;SDS011;66361;52.034;20.656;2023-05-27T18:48:18;6.22;;;2.95;;
77298;SDS011;66361;52.034;20.656;2023-05-27T18:52:23;2.83;;;2.28;;
77298;SDS011;66361;52.034;20.656;2023-05-27T18:56:27;3.65;;;2.50;;
77298;SDS011;66361;52.034;20.656;2023-05-27T19:00:31;4.00;;;2.33;;
77298;SDS011;66361;52.034;20.656;2023-05-27T19:04:34;4.40;;;2.25;;
77298;SDS011;66361;52.034;20.656;2023-05-27T19:08:41;3.95;;;2.28;;
77298;SDS011;66361;52.034;20.656;2023-05-27T19:12:46;2.72;;;2.10;;
77298;SDS011;66361;52.034;20.656;2023-05-27T19:16:49;5.20;;;2.63;;
77298;SDS011;66361;52.034;20.656;2023-05-27T19:20:53;4.00;;;2.55;;
77298;SDS011;66361;52.034;20.656;2023-05-27T19:24:58;6.35;;;5.93;;
77298;SDS011;66361;52.034;20.656;2023-05-27T19:29:01;22.63;;;10.50;;
77298;SDS011;66361;52.034;20.656;2023-05-27T19:33:04;44.40;;;21.88;;
77298;SDS011;66361;52.034;20.656;2023-05-27T19:37:08;35.03;;;15.82;;
77298;SDS011;66361;52.034;20.656;2023-05-27T19:41:13;31.98;;;18.23;;
77298;SDS011;66361;52.034;20.656;2023-05-27T19:45:16;33.45;;;15.07;;
77298;SDS011;66361;52.034;20.656;2023-05-27T19:49:20;22.00;;;12.45;;
77298;SDS011;66361;52.034;20.656;2023-05-27T19:53:27;25.30;;;13.57;;
77298;SDS011;66361;52.034;20.656;2023-05-27T19:57:33;21.92;;;13.30;;
77298;SDS011;66361;52.034;20.656;2023-05-27T20:01:36;23.52;;;10.70;;
77298;SDS011;66361;52.034;20.656;2023-05-27T20:05:40;19.95;;;9.27;;
77298;SDS011;66361;52.034;20.656;2023-05-27T20:09:44;21.65;;;8.93;;
77298;SDS011;66361;52.034;20.656;2023-05-27T20:13:49;14.27;;;8.18;;
77298;SDS011;66361;52.034;20.656;2023-05-27T20:17:53;17.75;;;8.40;;
77298;SDS011;66361;52.034;20.656;2023-05-27T20:21:58;28.73;;;8.32;;
77298;SDS011;66361;52.034;20.656;2023-05-27T20:26:01;18.23;;;7.80;;
77298;SDS011;66361;52.034;20.656;2023-05-27T20:30:07;15.68;;;7.55;;
77298;SDS011;66361;52.034;20.656;2023-05-27T20:34:11;18.63;;;13.70;;
77298;SDS011;66361;52.034;20.656;2023-05-27T20:38:14;17.05;;;8.93;;
77298;SDS011;66361;52.034;20.656;2023-05-27T20:42:17;12.25;;;6.07;;
77298;SDS011;66361;52.034;20.656;2023-05-27T20:50:26;12.38;;;6.65;;
77298;SDS011;66361;52.034;20.656;2023-05-27T20:54:29;13.02;;;7.47;;
77298;SDS011;66361;52.034;20.656;2023-05-27T20:58:34;12.93;;;6.22;;
77298;SDS011;66361;52.034;20.656;2023-05-27T21:02:42;12.05;;;6.30;;
77298;SDS011;66361;52.034;20.656;2023-05-27T21:06:48;14.65;;;7.82;;
77298;SDS011;66361;52.034;20.656;2023-05-27T21:10:51;12.00;;;8.30;;
77298;SDS011;66361;52.034;20.656;2023-05-27T21:14:54;12.77;;;8.70;;
77298;SDS011;66361;52.034;20.656;2023-05-27T21:23:02;15.45;;;8.30;;
77298;SDS011;66361;52.034;20.656;2023-05-27T21:27:06;17.05;;;8.57;;
77298;SDS011;66361;52.034;20.656;2023-05-27T21:31:12;13.90;;;8.98;;
77298;SDS011;66361;52.034;20.656;2023-05-27T21:35:17;15.68;;;9.00;;
77298;SDS011;66361;52.034;20.656;2023-05-27T21:39:20;14.32;;;9.65;;
77298;SDS011;66361;52.034;20.656;2023-05-27T21:43:23;12.10;;;7.78;;
77298;SDS011;66361;52.034;20.656;2023-05-27T21:47:27;14.85;;;9.35;;
77298;SDS011;66361;52.034;20.656;2023-05-27T21:51:31;14.70;;;7.72;;
77298;SDS011;66361;52.034;20.656;2023-05-27T21:55:34;13.65;;;9.10;;
77298;SDS011;66361;52.034;20.656;2023-05-27T21:59:38;14.32;;;9.00;;
77298;SDS011;66361;52.034;20.656;2023-05-27T22:03:41;11.80;;;7.50;;
77298;SDS011;66361;52.034;20.656;2023-05-27T22:07:48;13.30;;;6.80;;
77298;SDS011;66361;52.034;20.656;2023-05-27T22:11:51;13.30;;;8.05;;
77298;SDS011;66361;52.034;20.656;2023-05-27T22:20:03;13.45;;;6.22;;
77298;SDS011;66361;52.034;20.656;2023-05-27T22:24:08;9.52;;;6.95;;
77298;SDS011;66361;52.034;20.656;2023-05-27T22:28:11;11.70;;;6.55;;
77298;SDS011;66361;52.034;20.656;2023-05-27T22:32:14;8.15;;;5.65;;
77298;SDS011;66361;52.034;20.656;2023-05-27T22:36:17;10.82;;;6.38;;
77298;SDS011;66361;52.034;20.656;2023-05-27T22:44:24;9.27;;;6.57;;
77298;SDS011;66361;52.034;20.656;2023-05-27T22:48:27;8.32;;;5.95;;
77298;SDS011;66361;52.034;20.656;2023-05-27T22:52:30;9.30;;;6.07;;
77298;SDS011;66361;52.034;20.656;2023-05-27T22:56:34;12.02;;;6.53;;
77298;SDS011;66361;52.034;20.656;2023-05-27T23:00:38;11.98;;;6.30;;
77298;SDS011;66361;52.034;20.656;2023-05-27T23:04:40;15.88;;;5.97;;
77298;SDS011;66361;52.034;20.656;2023-05-27T23:12:48;11.82;;;6.43;;
77298;SDS011;66361;52.034;20.656;2023-05-27T23:16:51;8.48;;;5.63;;
77298;SDS011;66361;52.034;20.656;2023-05-27T23:20:56;10.70;;;6.43;;
77298;SDS011;66361;52.034;20.656;2023-05-27T23:25:02;10.82;;;7.90;;
77298;SDS011;66361;52.034;20.656;2023-05-27T23:29:09;12.18;;;7.80;;
77298;SDS011;66361;52.034;20.656;2023-05-27T23:33:12;14.18;;;7.75;;
77298;SDS011;66361;52.034;20.656;2023-05-27T23:37:15;11.68;;;7.47;;
77298;SDS011;66361;52.034;20.656;2023-05-27T23:45:23;11.95;;;8.65;;
77298;SDS011;66361;52.034;20.656;2023-05-27T23:49:29;11.82;;;7.15;;
77298;SDS011;66361;52.034;20.656;2023-05-27T23:53:32;12.52;;;7.65;;
77298;SDS011;66361;52.034;20.656;2023-05-27T23:57:35;10.30;;;7.90;;
